Time;durP1;ratioP1;P1;durP2;ratioP2;P2;SDS_P1;SDS_P2;PMS_P1;PMS_P2;Temp;Humidity;BMP_temperature;BMP_pressure;BME280_temperature;BME280_humidity;BME280_pressure;Samples;Min_cycle;Max_cycle;Signal;HPM_P1;HPM_P2
2022/07/20 00:02:08;;;;;;;7.00;4.18;;;;;;;20.83;58.92;100832.53;4979311;28;20059;-75
2022/07/20 00:04:37;;;;;;;11.45;4.78;;;;;;;20.52;59.11;100798.81;4983938;28;20051;-76
2022/07/20 00:07:04;;;;;;;13.68;5.20;;;;;;;20.79;59.36;100848.59;4985000;28;20081;-76
2022/07/20 00:12:16;;;;;;;10.05;4.65;;;;;;;20.70;59.58;100813.72;4985427;28;20549;-75
2022/07/20 00:14:43;;;;;;;10.30;4.05;;;;;;;20.51;59.51;100794.31;4985357;28;20566;-75
2022/07/20 00:17:10;;;;;;;9.98;4.13;;;;;;;20.76;59.52;100843.59;4984923;28;20479;-74
2022/07/20 00:19:37;;;;;;;10.77;3.95;;;;;;;20.52;59.57;100804.50;4988058;28;20149;-75
2022/07/20 00:22:03;;;;;;;9.45;5.38;;;;;;;20.49;59.58;100793.78;4983338;28;20149;-75
2022/07/20 00:24:30;;;;;;;13.52;4.55;;;;;;;20.54;59.60;100807.81;4991029;28;20178;-74
2022/07/20 00:26:57;;;;;;;7.05;3.97;;;;;;;20.50;59.62;100795.47;4980888;28;20090;-75
2022/07/20 00:29:24;;;;;;;13.20;4.55;;;;;;;20.55;59.52;100798.13;4990533;28;20046;-76
2022/07/20 00:31:51;;;;;;;9.80;3.88;;;;;;;20.59;59.66;100821.81;4980244;28;20145;-76
2022/07/20 00:34:18;;;;;;;9.07;3.67;;;;;;;20.51;59.79;100801.97;4984256;28;20054;-76
2022/07/20 00:36:45;;;;;;;9.90;4.10;;;;;;;20.47;59.75;100792.47;4990504;28;20145;-74
2022/07/20 00:39:12;;;;;;;11.88;3.95;;;;;;;20.31;59.85;100778.88;4986809;28;20133;-75
2022/07/20 00:41:39;;;;;;;10.63;3.88;;;;;;;20.21;59.92;100764.25;4987704;28;20054;-75
2022/07/20 00:44:08;;;;;;;9.07;3.78;;;;;;;20.55;59.79;100812.31;4986768;28;20104;-76
2022/07/20 00:46:38;;;;;;;10.67;4.40;;;;;;;20.51;59.59;100807.66;4986693;28;20133;-75
2022/07/20 00:49:06;;;;;;;;;;;;;;;20.40;59.68;100810.00;4984096;28;20308;-76
2022/07/20 00:51:33;;;;;;;8.63;3.90;;;;;;;20.42;59.62;100802.00;4982646;28;19965;-76
2022/07/20 00:54:00;;;;;;;8.25;4.43;;;;;;;20.26;59.72;100796.06;4982136;28;20058;-76
2022/07/20 00:56:27;;;;;;;8.48;4.20;;;;;;;20.40;59.68;100812.03;4982552;28;20146;-76
2022/07/20 00:58:54;;;;;;;11.25;4.60;;;;;;;20.14;59.80;100781.78;4986409;28;20057;-76
2022/07/20 01:01:21;;;;;;;9.15;4.07;;;;;;;20.06;60.00;100772.13;4986787;28;20062;-76
2022/07/20 01:03:48;;;;;;;8.32;3.42;;;;;;;20.26;59.82;100789.56;4983656;28;20408;-74
2022/07/20 01:06:16;;;;;;;10.30;4.38;;;;;;;20.08;60.26;100766.97;4986826;28;20104;-75
2022/07/20 01:08:43;;;;;;;6.97;3.88;;;;;;;20.25;59.69;100787.91;4989832;28;20099;-75
2022/07/20 01:11:09;;;;;;;8.07;3.80;;;;;;;20.29;59.86;100791.72;4987287;28;20050;-75
2022/07/20 01:13:36;;;;;;;9.73;3.78;;;;;;;20.23;60.09;100776.88;4981455;28;20089;-75
2022/07/20 01:16:03;;;;;;;12.02;4.38;;;;;;;20.31;60.16;100786.56;4985959;28;20138;-74
2022/07/20 01:18:31;;;;;;;13.07;4.03;;;;;;;20.12;60.47;100762.25;4983402;28;20149;-75
2022/07/20 01:21:08;;;;;;;11.60;4.38;;;;;;;20.24;60.19;100783.38;4983065;28;20141;-75
2022/07/20 01:23:35;;;;;;;8.38;4.30;;;;;;;20.40;60.02;100810.00;4977809;28;20078;-75
2022/07/20 01:26:02;;;;;;;11.27;4.15;;;;;;;20.33;59.90;100804.03;4986085;28;20042;-74
2022/07/20 01:28:30;;;;;;;10.70;4.03;;;;;;;20.15;59.94;100788.28;4985760;28;20097;-75
2022/07/20 01:30:57;;;;;;;6.95;4.03;;;;;;;20.15;59.86;100796.78;4981757;28;20093;-76
2022/07/20 01:33:24;;;;;;;16.45;4.45;;;;;;;20.16;60.07;100809.78;4984138;28;20047;-74
2022/07/20 01:35:51;;;;;;;9.32;4.68;;;;;;;20.16;59.99;100804.13;4981876;28;20144;-76
2022/07/20 01:38:18;;;;;;;8.45;3.83;;;;;;;20.24;59.94;100808.91;4985452;28;20112;-75
2022/07/20 01:40:45;;;;;;;8.98;3.85;;;;;;;19.87;60.00;100758.38;4983923;28;20065;-75
2022/07/20 01:43:11;;;;;;;15.02;4.78;;;;;;;20.11;60.18;100797.47;4982335;28;20571;-75
2022/07/20 01:45:39;;;;;;;10.63;4.38;;;;;;;20.13;60.18;100800.78;4988714;28;20085;-76
2022/07/20 01:48:06;;;;;;;11.95;4.78;;;;;;;19.77;60.43;100750.22;4985250;28;20050;-75
2022/07/20 01:50:33;;;;;;;9.75;4.18;;;;;;;20.05;60.44;100798.00;4985965;28;20133;-75
2022/07/20 01:53:00;;;;;;;9.20;4.13;;;;;;;20.19;60.29;100797.78;4987361;28;20050;-75
2022/07/20 01:55:27;;;;;;;9.38;3.60;;;;;;;20.00;60.18;100765.00;4985492;28;20058;-75
2022/07/20 01:57:54;;;;;;;8.35;4.47;;;;;;;20.03;59.90;100775.66;4983347;28;20142;-75
2022/07/20 02:00:21;;;;;;;12.30;5.07;;;;;;;20.19;60.06;100800.59;4987771;28;20039;-76
2022/07/20 02:02:49;;;;;;;8.57;4.88;;;;;;;20.00;60.26;100767.84;4981872;28;20085;-76
2022/07/20 02:05:17;;;;;;;14.23;5.43;;;;;;;20.08;60.13;100783.97;4987891;28;20055;-76
2022/07/20 02:07:45;;;;;;;8.02;4.45;;;;;;;20.04;60.30;100794.31;4985408;28;20603;-76
2022/07/20 02:10:14;;;;;;;9.65;5.20;;;;;;;19.94;60.24;100772.03;4983909;28;20160;-76
2022/07/20 02:12:41;;;;;;;15.13;4.40;;;;;;;19.75;60.16;100755.38;4980837;28;20145;-76
2022/07/20 02:15:10;;;;;;;9.32;4.57;;;;;;;19.92;60.51;100777.19;4983676;28;20093;-75
2022/07/20 02:17:37;;;;;;;13.10;6.33;;;;;;;19.89;60.29;100786.34;4987719;28;20081;-76
2022/07/20 02:20:05;;;;;;;14.63;6.88;;;;;;;19.89;60.11;100772.19;4988104;28;20343;-75
2022/07/20 02:22:32;;;;;;;12.13;7.93;;;;;;;19.83;60.24;100765.06;4985381;28;20081;-76
2022/07/20 02:24:58;;;;;;;18.92;9.63;;;;;;;19.80;60.47;100765.72;4983054;28;20140;-76
2022/07/20 02:27:25;;;;;;;14.13;7.60;;;;;;;19.58;60.44;100729.91;4985104;28;20058;-76
2022/07/20 02:29:52;;;;;;;16.90;9.48;;;;;;;19.70;60.52;100746.25;4984273;28;20133;-74
2022/07/20 02:32:19;;;;;;;16.88;9.32;;;;;;;19.66;60.50;100743.28;4981912;28;20092;-75
2022/07/20 02:34:46;;;;;;;11.43;7.13;;;;;;;19.78;60.58;100766.06;4985024;28;20136;-75
2022/07/20 02:37:13;;;;;;;13.05;6.13;;;;;;;19.79;60.65;100769.72;4986378;28;20054;-75
2022/07/20 02:39:39;;;;;;;11.93;6.18;;;;;;;19.60;60.76;100748.25;4984269;28;20129;-75
2022/07/20 02:42:06;;;;;;;9.25;5.55;;;;;;;19.57;60.89;100746.09;4978224;28;20153;-75
2022/07/20 02:44:33;;;;;;;10.98;5.57;;;;;;;19.49;60.57;100727.13;4989572;28;20112;-75
2022/07/20 02:47:00;;;;;;;9.45;5.22;;;;;;;19.74;60.90;100753.75;4983342;28;20090;-75
2022/07/20 02:49:27;;;;;;;11.77;5.53;;;;;;;19.75;60.58;100746.88;4982169;28;20043;-75
2022/07/20 02:51:54;;;;;;;12.25;5.60;;;;;;;19.59;60.67;100718.25;4984070;28;20134;-75
2022/07/20 02:54:23;;;;;;;9.32;4.88;;;;;;;19.90;60.58;100771.03;4986582;28;20145;-74
2022/07/20 02:56:50;;;;;;;9.98;5.30;;;;;;;19.70;60.24;100743.44;4984141;28;20459;-75
2022/07/20 02:59:17;;;;;;;15.55;5.25;;;;;;;19.79;60.45;100767.72;4983078;28;20101;-75
2022/07/20 03:01:44;;;;;;;8.68;4.28;;;;;;;19.75;60.31;100757.41;4982681;28;20137;-74
2022/07/20 03:04:11;;;;;;;7.78;4.28;;;;;;;19.63;60.92;100736.28;4985093;28;20054;-75
2022/07/20 03:06:38;;;;;;;14.27;5.40;;;;;;;19.78;60.71;100748.22;4981920;28;20067;-75
2022/07/20 03:09:05;;;;;;;9.45;4.05;;;;;;;19.76;60.45;100736.38;4987678;28;20133;-75
2022/07/20 03:11:32;;;;;;;8.77;4.10;;;;;;;19.82;60.30;100754.88;4987054;28;20136;-74
2022/07/20 03:13:59;;;;;;;9.98;4.72;;;;;;;19.68;60.37;100737.25;4977956;28;20516;-74
2022/07/20 03:16:26;;;;;;;9.85;5.50;;;;;;;19.44;60.21;100707.44;4995038;28;20145;-75
2022/07/20 03:18:53;;;;;;;7.68;3.95;;;;;;;19.56;60.61;100733.09;4986057;28;20082;-75
2022/07/20 03:21:20;;;;;;;12.70;5.05;;;;;;;19.60;60.39;100744.59;4988300;28;20081;-75
2022/07/20 03:23:48;;;;;;;9.32;4.50;;;;;;;19.41;60.52;100727.94;4993716;28;20050;-75
2022/07/20 03:26:15;;;;;;;7.43;4.25;;;;;;;19.55;60.51;100753.25;4985606;28;20082;-75
2022/07/20 03:28:42;;;;;;;9.13;4.82;;;;;;;19.34;60.56;100724.78;4986971;28;20097;-75
2022/07/20 03:31:09;;;;;;;10.65;5.28;;;;;;;19.44;60.46;100746.28;4981880;28;20106;-74
2022/07/20 03:33:36;;;;;;;9.07;4.45;;;;;;;19.36;60.55;100739.47;4983321;28;20137;-74
2022/07/20 03:36:03;;;;;;;7.30;4.28;;;;;;;19.53;60.78;100747.94;4990362;28;20464;-75
2022/07/20 03:38:30;;;;;;;11.02;5.10;;;;;;;19.58;60.54;100752.56;4981968;28;20083;-74
2022/07/20 03:40:57;;;;;;;12.20;6.43;;;;;;;19.52;60.57;100742.59;4990088;28;20048;-75
2022/07/20 03:43:25;;;;;;;11.85;5.55;;;;;;;19.39;60.58;100728.28;4994660;28;20162;-75
2022/07/20 03:45:52;;;;;;;16.30;5.53;;;;;;;19.01;60.72;100665.91;4986658;28;20050;-74
2022/07/20 03:48:19;;;;;;;12.18;6.53;;;;;;;19.56;60.67;100750.09;4984901;28;20130;-75
2022/07/20 03:50:46;;;;;;;9.63;5.38;;;;;;;19.48;60.79;100748.09;4994326;28;20533;-75
2022/07/20 03:53:13;;;;;;;9.48;5.35;;;;;;;19.47;60.79;100739.94;4989815;28;20080;-74
2022/07/20 03:55:41;;;;;;;12.45;5.82;;;;;;;19.48;61.00;100764.25;4990622;28;20058;-75
2022/07/20 03:58:08;;;;;;;10.75;5.55;;;;;;;19.36;61.08;100742.28;4989947;28;20137;-74
2022/07/20 04:00:34;;;;;;;14.77;5.68;;;;;;;19.35;61.00;100740.59;4987864;28;20137;-74
2022/07/20 04:03:01;;;;;;;8.85;4.95;;;;;;;19.46;60.79;100755.28;4991970;28;20144;-74
2022/07/20 04:05:29;;;;;;;11.07;5.05;;;;;;;19.36;60.79;100730.97;4989970;28;20054;-73
2022/07/20 04:07:56;;;;;;;7.93;4.43;;;;;;;19.29;61.05;100730.66;4992198;28;20129;-74
2022/07/20 04:10:22;;;;;;;7.13;4.65;;;;;;;19.26;60.78;100734.16;4982920;28;20133;-75
2022/07/20 04:12:51;;;;;;;9.60;5.05;;;;;;;19.16;60.70;100709.84;4993589;28;20050;-74
2022/07/20 04:15:18;;;;;;;8.30;5.40;;;;;;;19.13;60.90;100708.50;4983492;28;20078;-75
2022/07/20 04:17:44;;;;;;;12.13;5.53;;;;;;;19.35;60.94;100754.78;4992356;28;20080;-75
2022/07/20 04:20:11;;;;;;;6.25;4.13;;;;;;;19.34;61.12;100741.78;4990171;28;20074;-75
2022/07/20 04:22:38;;;;;;;6.70;4.55;;;;;;;19.11;60.70;100722.16;4984989;28;20487;-76
2022/07/20 04:25:06;;;;;;;11.23;4.75;;;;;;;19.18;60.68;100722.50;4989551;28;20078;-74
2022/07/20 04:27:33;;;;;;;8.63;4.75;;;;;;;19.10;60.76;100716.84;4989268;28;20101;-76
2022/07/20 04:29:59;;;;;;;9.07;4.95;;;;;;;19.28;60.56;100754.44;4993109;28;20138;-74
2022/07/20 04:32:26;;;;;;;9.38;5.13;;;;;;;19.26;60.80;100749.13;4983176;28;20050;-75
2022/07/20 04:34:53;;;;;;;10.88;4.80;;;;;;;18.99;60.54;100707.84;4993743;28;20046;-74
2022/07/20 04:37:21;;;;;;;8.50;4.38;;;;;;;19.05;60.74;100717.00;4986359;28;20139;-74
2022/07/20 04:39:48;;;;;;;7.15;4.65;;;;;;;18.93;60.94;100712.00;4987064;28;20088;-74
2022/07/20 04:42:15;;;;;;;11.55;5.00;;;;;;;18.98;60.69;100728.84;4990322;28;20100;-74
2022/07/20 04:44:42;;;;;;;8.15;4.95;;;;;;;18.96;60.85;100725.50;4990010;28;20066;-74
2022/07/20 04:47:09;;;;;;;11.20;4.97;;;;;;;19.08;61.03;100739.81;4985077;28;20531;-74
2022/07/20 04:49:36;;;;;;;8.93;5.10;;;;;;;19.09;60.93;100732.97;4993832;28;20051;-75
2022/07/20 04:52:03;;;;;;;11.45;5.10;;;;;;;18.93;61.15;100706.34;4995100;28;20169;-74
2022/07/20 04:54:38;;;;;;;7.63;4.70;;;;;;;18.91;60.84;100718.00;4991312;28;20089;-73
2022/07/20 04:57:05;;;;;;;10.48;4.93;;;;;;;19.02;60.71;100738.31;4989801;28;20085;-74
2022/07/20 04:59:32;;;;;;;8.88;5.10;;;;;;;18.82;60.79;100720.00;4988522;28;20088;-73
2022/07/20 05:01:59;;;;;;;8.52;5.20;;;;;;;18.95;61.23;100740.81;4990071;28;20085;-74
2022/07/20 05:04:27;;;;;;;12.55;6.28;;;;;;;18.77;61.17;100724.97;4988935;28;20590;-73
2022/07/20 05:06:53;;;;;;;11.98;4.70;;;;;;;18.76;61.07;100732.63;4989297;28;20050;-74
2022/07/20 05:09:20;;;;;;;7.40;5.45;;;;;;;18.66;61.15;100707.47;4985332;28;20146;-73
2022/07/20 05:11:47;;;;;;;11.77;5.78;;;;;;;18.84;61.05;100733.84;4990558;28;20051;-74
2022/07/20 05:14:14;;;;;;;9.48;4.90;;;;;;;18.94;61.26;100751.31;4984867;28;20472;-74
2022/07/20 05:16:41;;;;;;;7.05;4.82;;;;;;;18.89;61.21;100734.47;4986748;28;20053;-74
2022/07/20 05:19:09;;;;;;;12.23;5.25;;;;;;;18.86;61.17;100720.16;4984881;28;20141;-73
2022/07/20 05:21:39;;;;;;;8.68;5.45;;;;;;;18.82;61.12;100714.34;4985664;28;20126;-74
2022/07/20 05:24:06;;;;;;;12.43;6.50;;;;;;;18.87;61.42;100728.34;4986395;28;20058;-74
2022/07/20 05:26:33;;;;;;;9.32;5.30;;;;;;;19.04;61.21;100752.13;4989114;28;20086;-74
2022/07/20 05:29:01;;;;;;;11.82;5.88;;;;;;;18.95;61.24;100732.31;4991839;28;20145;-74
2022/07/20 05:31:28;;;;;;;12.52;5.40;;;;;;;18.76;61.24;100693.03;4966555;28;20150;-73
2022/07/20 05:33:55;;;;;;;8.90;5.60;;;;;;;18.97;61.03;100720.66;4988422;28;20058;-74
2022/07/20 05:36:22;;;;;;;10.70;5.50;;;;;;;19.18;61.25;100750.81;4990606;28;20100;-75
2022/07/20 05:38:49;;;;;;;13.00;5.65;;;;;;;19.00;61.38;100708.69;4987593;28;20074;-75
2022/07/20 05:41:17;;;;;;;16.13;6.03;;;;;;;19.22;60.95;100733.97;4989379;28;20053;-75
2022/07/20 05:43:44;;;;;;;13.90;6.20;;;;;;;19.23;61.13;100729.97;5003398;28;20483;-75
2022/07/20 05:46:10;;;;;;;10.23;5.78;;;;;;;19.29;60.78;100720.16;4987194;28;20079;-74
2022/07/20 05:48:38;;;;;;;9.27;6.13;;;;;;;19.38;60.79;100737.09;4991689;28;20050;-73
2022/07/20 05:51:05;;;;;;;14.65;5.80;;;;;;;19.11;60.80;100682.53;4979131;28;20148;-73
2022/07/20 05:53:31;;;;;;;10.20;6.57;;;;;;;19.47;60.86;100734.28;4981175;28;20052;-72
2022/07/20 05:55:58;;;;;;;11.43;4.80;;;;;;;19.46;60.73;100724.94;4985199;28;20077;-70
2022/07/20 05:58:25;;;;;;;10.35;5.78;;;;;;;19.72;60.89;100735.41;4986550;28;20042;-71
2022/07/20 06:00:52;;;;;;;10.82;5.55;;;;;;;19.85;60.31;100748.53;4980273;28;20079;-74
2022/07/20 06:03:19;;;;;;;7.63;4.20;;;;;;;19.77;60.60;100726.72;4978699;28;20096;-73
2022/07/20 06:05:46;;;;;;;9.13;5.22;;;;;;;19.82;60.50;100735.03;4985667;28;20508;-72
2022/07/20 06:08:13;;;;;;;17.05;7.28;;;;;;;19.94;60.42;100726.66;4996417;28;20089;-74
2022/07/20 06:10:40;;;;;;;7.68;4.82;;;;;;;19.95;60.08;100701.97;4983136;28;20054;-73
2022/07/20 06:13:07;;;;;;;6.65;4.90;;;;;;;20.46;60.22;100757.59;4979065;28;20056;-74
2022/07/20 06:15:36;;;;;;;9.23;5.22;;;;;;;20.72;59.86;100750.97;4984407;28;20057;-72
2022/07/20 06:18:03;;;;;;;11.60;4.50;;;;;;;20.93;59.64;100751.81;4990312;28;20562;-73
2022/07/20 06:20:30;;;;;;;12.20;6.05;;;;;;;21.11;59.06;100740.31;4982835;28;20050;-76
2022/07/20 06:23:04;;;;;;;11.15;6.15;;;;;;;21.22;58.79;100724.50;4983644;28;20060;-76
2022/07/20 06:25:48;;;;;;;10.00;5.97;;;;;;;21.47;58.22;100729.13;4979585;28;20062;-75
2022/07/20 06:28:15;;;;;;;9.07;5.68;;;;;;;21.74;57.98;100736.19;4983403;28;20085;-72
2022/07/20 06:30:41;;;;;;;16.58;5.50;;;;;;;21.96;57.58;100729.22;4983686;28;20487;-71
2022/07/20 06:33:08;;;;;;;6.25;4.43;;;;;;;22.27;57.23;100739.25;4988871;28;20121;-76
2022/07/20 06:35:36;;;;;;;9.60;4.57;;;;;;;22.58;56.45;100735.78;4983135;28;20081;-74
2022/07/20 06:38:03;;;;;;;9.88;5.45;;;;;;;22.81;56.14;100724.72;4986291;28;20058;-75
2022/07/20 06:40:30;;;;;;;10.20;5.88;;;;;;;23.34;55.48;100759.69;4982520;28;20082;-74
2022/07/20 06:42:57;;;;;;;8.15;4.72;;;;;;;23.55;55.08;100744.41;4979182;28;20141;-75
2022/07/20 06:45:24;;;;;;;10.45;5.13;;;;;;;23.86;54.24;100755.06;4989733;28;20799;-76
2022/07/20 06:47:50;;;;;;;9.95;5.40;;;;;;;24.23;53.93;100769.91;4985397;28;20503;-73
2022/07/20 06:50:17;;;;;;;9.82;5.75;;;;;;;24.45;52.53;100753.38;4981901;28;20054;-72
2022/07/20 06:52:44;;;;;;;6.95;5.03;;;;;;;24.50;52.04;100730.25;4983772;28;20137;-74
2022/07/20 06:55:11;;;;;;;12.90;5.90;;;;;;;24.98;51.80;100765.22;4975517;28;20184;-75
2022/07/20 06:57:38;;;;;;;8.60;5.53;;;;;;;25.19;51.18;100768.56;4972850;28;20140;-75
2022/07/20 07:00:07;;;;;;;7.55;5.10;;;;;;;25.22;50.89;100752.72;4981560;28;20510;-76
2022/07/20 07:02:39;;;;;;;10.65;5.05;;;;;;;25.38;50.72;100764.91;4985677;28;20073;-77
2022/07/20 07:05:07;;;;;;;10.60;5.50;;;;;;;25.57;50.09;100764.06;4989836;28;20160;-76
2022/07/20 07:07:34;;;;;;;8.93;5.57;;;;;;;25.91;49.59;100784.38;4983310;28;20078;-76
2022/07/20 07:10:09;;;;;;;10.18;5.75;;;;;;;26.04;49.61;100782.97;4988453;28;20148;-76
2022/07/20 07:12:54;;;;;;;10.52;4.90;;;;;;;26.10;49.20;100781.47;4987530;28;20038;-75
2022/07/20 07:15:21;;;;;;;12.60;7.07;;;;;;;26.17;49.00;100767.28;4985246;28;20156;-76
2022/07/20 07:17:47;;;;;;;11.85;5.53;;;;;;;26.33;48.50;100766.34;4987356;28;20093;-75
2022/07/20 07:20:14;;;;;;;9.73;6.10;;;;;;;26.46;47.91;100777.19;4991204;28;20046;-76
2022/07/20 07:22:50;;;;;;;6.50;4.88;;;;;;;26.44;47.72;100755.88;4986724;28;20678;-76
2022/07/20 07:25:17;;;;;;;10.00;4.97;;;;;;;26.66;47.56;100786.53;4992618;28;20137;-74
2022/07/20 07:27:43;;;;;;;11.35;5.00;;;;;;;26.68;47.42;100766.13;4987145;28;20201;-75
2022/07/20 07:30:13;;;;;;;7.55;4.22;;;;;;;26.83;47.26;100770.84;4983381;28;20046;-75
2022/07/20 07:32:40;;;;;;;7.65;4.88;;;;;;;27.00;46.45;100774.34;4979986;28;20086;-77
2022/07/20 07:35:07;;;;;;;6.60;4.25;;;;;;;27.20;46.44;100795.16;4981505;28;20054;-73
2022/07/20 07:37:38;;;;;;;9.52;4.03;;;;;;;27.25;46.17;100792.78;4982707;28;20065;-79
2022/07/20 07:40:06;;;;;;;9.07;4.80;;;;;;;27.02;46.21;100769.91;4983580;28;20073;-77
2022/07/20 07:42:33;;;;;;;8.18;4.15;;;;;;;27.30;45.95;100789.56;4986063;28;20050;-83
2022/07/20 07:45:14;;;;;;;9.30;4.93;;;;;;;27.31;45.94;100770.31;4981180;28;20074;-80
2022/07/20 07:47:53;;;;;;;6.20;4.15;;;;;;;27.39;45.80;100777.81;4981177;28;20077;-80
2022/07/20 07:50:19;;;;;;;8.25;3.67;;;;;;;27.38;45.33;100767.53;4984382;28;20137;-80
2022/07/20 07:52:46;;;;;;;6.53;4.32;;;;;;;27.44;45.19;100785.22;4983438;28;20126;-81
2022/07/20 07:55:23;;;;;;;9.27;4.93;;;;;;;27.31;45.43;100782.59;4986309;28;20113;-77
2022/07/20 07:57:50;;;;;;;6.00;4.00;;;;;;;27.26;45.23;100782.13;4983066;28;20699;-78
2022/07/20 08:00:17;;;;;;;7.50;4.72;;;;;;;27.37;44.95;100774.50;4983290;28;20074;-81
2022/07/20 08:02:44;;;;;;;9.10;4.32;;;;;;;27.63;44.88;100802.28;4988325;28;20085;-80
2022/07/20 08:05:11;;;;;;;7.28;4.97;;;;;;;27.70;44.97;100810.16;4986416;28;20057;-80
2022/07/20 08:07:40;;;;;;;8.60;4.72;;;;;;;27.63;44.54;100794.50;4988185;28;20054;-79
2022/07/20 08:10:08;;;;;;;6.90;4.05;;;;;;;27.82;44.63;100807.84;4985225;28;20061;-78
2022/07/20 08:12:36;;;;;;;7.63;4.00;;;;;;;27.90;44.16;100805.06;4981277;28;20056;-78
2022/07/20 08:15:05;;;;;;;11.10;5.00;;;;;;;27.91;44.11;100816.16;4987491;28;20419;-76
2022/07/20 08:17:32;;;;;;;6.32;3.60;;;;;;;27.86;44.35;100797.25;4979877;28;20146;-78
2022/07/20 08:19:59;;;;;;;6.85;3.95;;;;;;;28.00;43.88;100825.28;4984697;28;20150;-77
2022/07/20 08:22:26;;;;;;;6.80;3.85;;;;;;;27.98;43.82;100787.53;4982864;28;20084;-80
2022/07/20 08:24:52;;;;;;;7.45;3.88;;;;;;;28.07;43.63;100796.66;4983794;28;20133;-79
2022/07/20 08:27:21;;;;;;;7.72;4.00;;;;;;;28.33;43.36;100810.03;4980273;28;20093;-78
2022/07/20 08:29:48;;;;;;;6.30;3.92;;;;;;;28.47;42.78;100817.97;4987483;28;20050;-79
2022/07/20 08:32:15;;;;;;;6.63;4.40;;;;;;;28.29;42.78;100774.72;4984583;28;20503;-78
2022/07/20 08:34:42;;;;;;;6.82;3.92;;;;;;;28.77;42.37;100817.00;4988210;28;20153;-77
2022/07/20 08:37:09;;;;;;;6.38;4.30;;;;;;;29.00;42.39;100802.41;5002095;28;20078;-74
2022/07/20 08:39:35;;;;;;;8.38;4.30;;;;;;;29.16;41.68;100799.22;4987653;28;20088;-78
2022/07/20 08:42:09;;;;;;;7.72;3.65;;;;;;;29.16;41.35;100790.59;4982816;28;22917;-77
2022/07/20 08:44:35;;;;;;;6.53;3.90;;;;;;;29.17;41.84;100812.38;4988775;28;20137;-76
2022/07/20 08:47:03;;;;;;;6.57;4.00;;;;;;;29.37;41.40;100816.59;4984964;28;20582;-74
2022/07/20 08:49:30;;;;;;;8.73;3.92;;;;;;;29.68;41.15;100808.56;4987014;28;20058;-74
2022/07/20 08:51:58;;;;;;;8.40;3.55;;;;;;;29.63;40.80;100791.66;4986282;28;20411;-74
2022/07/20 08:54:26;;;;;;;7.28;4.20;;;;;;;29.66;40.53;100806.06;4984405;28;20062;-74
2022/07/20 08:56:53;;;;;;;5.93;4.10;;;;;;;29.85;40.55;100816.44;4984354;28;20062;-77
2022/07/20 08:59:20;;;;;;;5.53;3.10;;;;;;;29.84;40.36;100788.84;4979836;28;20136;-77
2022/07/20 09:02:01;;;;;;;5.63;3.65;;;;;;;30.04;40.21;100797.13;4980306;28;20458;-77
2022/07/20 09:04:28;;;;;;;6.35;4.07;;;;;;;30.24;39.73;100807.06;4987379;28;20046;-76
2022/07/20 09:06:56;;;;;;;11.30;4.47;;;;;;;30.35;39.16;100790.63;4991510;28;20201;-76
2022/07/20 09:09:24;;;;;;;15.20;4.13;;;;;;;30.33;39.34;100770.06;4987912;28;20134;-79
2022/07/20 09:11:51;;;;;;;7.72;4.10;;;;;;;30.48;38.85;100781.56;4992108;28;20412;-79
2022/07/20 09:14:40;;;;;;;7.72;3.40;;;;;;;30.61;39.35;100785.69;4981648;28;20054;-80
2022/07/20 09:17:19;;;;;;;6.47;3.10;;;;;;;30.60;38.83;100769.63;4986724;28;20038;-80
2022/07/20 09:20:07;;;;;;;4.40;2.75;;;;;;;30.65;38.71;100763.44;4983721;28;20095;-79
2022/07/20 09:22:37;;;;;;;7.85;3.58;;;;;;;30.87;38.65;100779.53;4984239;28;20073;-81
2022/07/20 09:25:15;;;;;;;6.35;3.90;;;;;;;30.99;38.44;100771.66;4989722;28;20058;-80
2022/07/20 09:27:50;;;;;;;6.47;3.10;;;;;;;30.88;38.34;100720.59;4981685;28;20479;-85
2022/07/20 09:30:17;;;;;;;7.75;4.55;;;;;;;31.54;37.64;100799.94;4987284;28;20081;-78
2022/07/20 09:32:58;;;;;;;7.25;3.25;;;;;;;31.74;37.38;100792.44;4986458;28;20125;-85
2022/07/20 09:35:32;;;;;;;6.57;3.53;;;;;;;31.99;37.26;100788.59;4985679;28;20505;-80
2022/07/20 09:38:04;;;;;;;4.63;2.92;;;;;;;31.91;36.86;100792.78;4977631;28;20089;-79
2022/07/20 09:40:52;;;;;;;5.70;2.92;;;;;;;31.95;36.81;100793.59;4987902;28;20156;-82
2022/07/20 09:43:28;;;;;;;6.45;3.13;;;;;;;32.07;36.35;100791.03;4976066;28;20097;-83
2022/07/20 09:46:07;;;;;;;5.22;3.70;;;;;;;31.90;36.49;100780.41;4988953;28;20097;-83
2022/07/20 09:48:56;;;;;;;7.05;3.13;;;;;;;32.07;36.40;100782.38;4989493;28;20128;-80
2022/07/20 09:51:33;;;;;;;6.53;3.58;;;;;;;32.32;36.12;100790.84;4984547;28;20472;-80
2022/07/20 09:54:10;;;;;;;6.30;3.30;;;;;;;32.44;35.61;100780.03;4987527;28;20137;-80
2022/07/20 09:56:39;;;;;;;9.30;4.03;;;;;;;32.19;35.25;100751.31;4994303;28;20050;-80
2022/07/20 09:59:09;;;;;;;9.13;4.35;;;;;;;32.37;35.56;100751.19;4987004;28;20050;-80
2022/07/20 10:01:38;;;;;;;5.15;3.50;;;;;;;32.68;34.94;100758.75;4989727;28;20078;-79
2022/07/20 10:04:07;;;;;;;6.07;3.47;;;;;;;32.78;34.66;100726.03;4983921;28;20104;-84
2022/07/20 10:06:36;;;;;;;5.65;3.55;;;;;;;32.86;34.66;100746.22;4985520;28;20169;-83
2022/07/20 10:09:05;;;;;;;8.13;3.33;;;;;;;33.00;34.79;100754.75;5003582;28;20510;-82
2022/07/20 10:11:35;;;;;;;7.60;4.47;;;;;;;33.24;34.31;100750.75;4987595;28;20137;-82
2022/07/20 10:14:04;;;;;;;7.28;4.00;;;;;;;33.62;34.09;100779.66;4993255;28;20046;-80
2022/07/20 10:16:39;;;;;;;8.80;3.40;;;;;;;33.71;33.73;100777.06;4985948;28;20530;-82
2022/07/20 10:19:07;;;;;;;7.95;3.70;;;;;;;33.48;33.89;100774.06;4987508;28;20054;-78
2022/07/20 10:21:40;;;;;;;7.32;4.32;;;;;;;33.47;34.19;100786.84;4986573;28;20058;-81
2022/07/20 10:24:29;;;;;;;6.60;3.60;;;;;;;33.21;34.30;100757.41;4989827;28;20145;-82
2022/07/20 10:27:08;;;;;;;5.57;2.72;;;;;;;33.32;34.34;100777.53;4985389;28;20077;-82
2022/07/20 10:29:39;;;;;;;;;;;;;;;33.09;35.44;100772.41;4984519;28;20050;-79
2022/07/20 10:32:09;;;;;;;5.13;3.33;;;;;;;33.40;34.69;100776.22;4981553;28;19930;-76
2022/07/20 10:34:37;;;;;;;6.13;3.53;;;;;;;33.48;34.15;100779.84;4985928;28;20586;-81
2022/07/20 10:37:24;;;;;;;9.73;3.73;;;;;;;33.07;33.95;100731.53;4983430;28;20593;-81
2022/07/20 10:39:57;;;;;;;9.05;4.25;;;;;;;33.21;34.46;100768.97;4982877;28;20320;-79
2022/07/20 10:42:28;;;;;;;7.82;3.63;;;;;;;33.13;34.55;100770.31;4983240;28;20082;-79
2022/07/20 10:45:15;;;;;;;6.55;3.35;;;;;;;33.03;34.84;100748.94;4987133;28;20133;-77
2022/07/20 10:47:47;;;;;;;6.05;3.30;;;;;;;33.05;34.34;100731.13;4984188;28;20507;-83
2022/07/20 10:50:24;;;;;;;5.50;3.55;;;;;;;33.36;34.16;100743.56;4981225;28;20141;-79
2022/07/20 10:52:54;;;;;;;7.25;4.07;;;;;;;33.63;33.50;100737.84;4982974;28;20081;-82
2022/07/20 10:55:33;;;;;;;4.95;3.00;;;;;;;33.88;33.52;100752.00;4985684;28;20993;-83
2022/07/20 10:58:01;;;;;;;6.72;3.15;;;;;;;34.03;33.01;100746.84;4984486;28;20133;-84
2022/07/20 11:00:36;;;;;;;6.30;3.47;;;;;;;34.04;32.75;100715.78;4985917;28;20141;-79
2022/07/20 11:03:27;;;;;;;7.32;3.67;;;;;;;34.27;33.05;100746.88;4988414;28;20092;-79
2022/07/20 11:06:20;;;;;;;8.80;3.95;;;;;;;34.37;32.81;100746.69;4979806;28;20046;-78
2022/07/20 11:08:56;;;;;;;10.25;4.18;;;;;;;34.33;32.49;100734.34;4981567;28;20140;-83
2022/07/20 11:11:33;;;;;;;5.50;4.10;;;;;;;34.23;32.86;100729.53;4980333;28;20137;-84
2022/07/20 11:14:05;;;;;;;6.57;3.55;;;;;;;34.36;32.29;100738.41;4990224;28;20065;-84
2022/07/20 11:16:34;;;;;;;5.18;3.50;;;;;;;34.40;32.50;100724.69;4995010;28;20398;-83
2022/07/20 11:19:03;;;;;;;6.70;3.88;;;;;;;34.56;31.94;100716.13;4996551;28;20136;-85
2022/07/20 11:21:39;;;;;;;8.38;3.53;;;;;;;34.61;32.30;100723.53;4999244;28;20046;-82
2022/07/20 11:24:28;;;;;;;6.43;3.45;;;;;;;34.47;32.25;100727.47;4986018;28;20081;-79
2022/07/20 11:26:55;;;;;;;;;;;;;;;34.10;33.74;100728.50;4985509;28;20123;-78
2022/07/20 11:29:25;;;;;;;7.07;4.20;;;;;;;34.34;32.95;100726.47;4997856;28;20443;-79
2022/07/20 11:31:52;;;;;;;8.90;2.95;;;;;;;34.34;32.65;100709.06;4982314;28;20059;-80
2022/07/20 11:34:19;;;;;;;6.38;2.63;;;;;;;34.10;33.44;100711.94;4983546;28;20082;-81
2022/07/20 11:36:47;;;;;;;6.70;2.72;;;;;;;34.16;33.48;100710.19;4985569;28;20105;-81